Αρχική σελίδα
METAR-TAF:

METAR-TAF

Αεροδρόμια :

Ataq, Υεμένη

γεωγραφικό πλάτος: 14-31N, γεωγραφικό μήκος: 046-51E, υψόμετρο: 1067 μ

Παρών καιρός

Η αναφορά έγινε 4 ώρες και 2 λεπτά πριν, στις 15:00 UTC
Άνεμος 14 kt από Β/BA
Θερμοκρασία 39°C
Υγρασία 6%
Πίεση 1011 hPa
Ορατότητα 10 χλμ και άνω
Δεν υπάρχουν νέφη με βάση κάτω από τα 1500 μ. και δεν υπάρχουν νέφη σωρειτομελανίτες.

METAR: OYAT 301500Z 02014KT CAVOK 39/M06 Q1011

Χρόνος: 22:02 (19:02 UTC)


TAF: λείπει

Μετεωρολογικές αναφορές και προγνώσεις για περισσότερα από 4000 αεροδρόμια (δελτία METAR και TAF).

Οι διαθέσιμοι σταθμοί απεικονίζονται στο χάρτη με κίτρινες και κόκκινες κουκκίδες.

Μετακινήστε το ποντίκι πάνω από τις κουκκίδες για να δείτε το όνομα του σταθμού.

Στη συνέχεια, κάντε κλικ για να δείτε τις μετεωρολογικές αναφορές και τις προγνώσεις καιρού.

Για να αλλάξετε το χάρτη: κάντε κλικ στα πράσινα κουμπιά με τον μαύρο σταυρό για να ζουμάρετε, στο πράσινο κουμπί με την παύλα για να αφαιρέσετε το ζουμ ή στα πράσινα βέλη για να αντιπαραβάλλετε χάρτες.


METAR-TAF: